Time;durP1;ratioP1;P1;durP2;ratioP2;P2;SDS_P1;SDS_P2;PMS_P1;PMS_P2;Temp;Humidity;BMP_temperature;BMP_pressure;BME280_temperature;BME280_humidity;BME280_pressure;Samples;Min_cycle;Max_cycle;Signal;HPM_P1;HPM_P2
2022/10/04 00:01:44;;;;;;;;;26.75;25.50;;;;;14.70;65.23;101544.81;4820973;29;45645;-78
2022/10/04 00:04:18;;;;;;;;;32.75;29.75;;;;;14.69;64.99;101544.91;4821471;29;46549;-80
2022/10/04 00:06:52;;;;;;;;;31.25;27.75;;;;;14.70;64.79;101546.59;4821052;29;45844;-78
2022/10/04 00:12:51;;;;;;;;;32.00;27.25;;;;;14.67;64.89;101544.19;4820642;29;45670;-78
2022/10/04 00:15:19;;;;;;;;;31.75;28.50;;;;;14.64;65.06;101545.25;4820947;29;46109;-78
2022/10/04 00:18:17;;;;;;;;;31.25;27.00;;;;;14.63;65.19;101545.34;4820996;29;45889;-78
2022/10/04 00:20:46;;;;;;;;;31.00;29.25;;;;;14.61;64.81;101545.47;4809048;29;45733;-79
2022/10/04 00:23:27;;;;;;;;;32.00;28.75;;;;;14.59;64.91;101544.75;4820936;29;46342;-78
2022/10/04 00:26:01;;;;;;;;;31.25;28.00;;;;;14.57;64.92;101537.91;4820808;29;46093;-78
2022/10/04 00:28:35;;;;;;;;;31.25;29.25;;;;;14.57;65.14;101536.13;4820959;29;45765;-78
2022/10/04 00:31:27;;;;;;;;;30.50;28.50;;;;;14.56;65.36;101538.84;4821328;29;45676;-78
2022/10/04 00:33:53;;;;;;;;;33.25;28.75;;;;;14.55;65.17;101542.44;4820860;29;46266;-78
2022/10/04 00:36:24;;;;;;;;;33.00;29.25;;;;;14.55;65.08;101553.00;4820649;29;45643;-78
2022/10/04 00:39:07;;;;;;;;;35.25;30.25;;;;;14.54;65.35;101544.22;4820357;29;45599;-78
2022/10/04 00:41:47;;;;;;;;;29.50;28.25;;;;;14.52;65.23;101547.94;4820885;29;45653;-78
2022/10/04 00:44:27;;;;;;;;;35.00;29.00;;;;;14.48;65.26;101535.91;4820446;29;47093;-78
2022/10/04 00:46:55;;;;;;;;;31.25;28.75;;;;;14.49;65.39;101541.09;4820642;29;46527;-78
2022/10/04 00:49:27;;;;;;;;;30.25;28.00;;;;;14.48;65.10;101542.03;4820336;29;46023;-78
2022/10/04 00:52:02;;;;;;;;;34.75;30.25;;;;;14.46;65.51;101535.22;4820942;29;45819;-80
2022/10/04 00:54:43;;;;;;;;;31.25;29.50;;;;;14.46;65.31;101529.94;4820528;29;46529;-80
2022/10/04 00:57:20;;;;;;;;;33.25;29.50;;;;;14.47;65.31;101531.59;4827490;29;46061;-77
2022/10/04 00:59:49;;;;;;;;;33.50;30.25;;;;;14.46;65.45;101533.41;4878331;29;45852;-80
2022/10/04 01:02:20;;;;;;;;;40.50;32.75;;;;;14.40;65.40;101520.69;4878605;29;45772;-80
2022/10/04 01:05:12;;;;;;;;;31.25;26.75;;;;;14.44;65.68;101524.75;4879199;29;45687;-79
2022/10/04 01:08:12;;;;;;;;;37.50;29.25;;;;;14.42;65.57;101515.28;4881884;29;45560;-77
2022/10/04 01:10:45;;;;;;;;;26.75;26.00;;;;;14.40;65.44;101518.03;4878707;29;45606;-77
2022/10/04 01:13:20;;;;;;;;;33.75;27.50;;;;;14.39;65.74;101516.34;4864468;29;45708;-78
2022/10/04 01:16:01;;;;;;;;;28.75;26.25;;;;;14.38;65.39;101508.53;4862602;29;49039;-78
2022/10/04 01:18:30;;;;;;;;;29.75;27.50;;;;;14.38;65.42;101505.91;4880516;29;46210;-79
2022/10/04 01:21:04;;;;;;;;;28.50;26.00;;;;;14.37;65.54;101497.16;4880262;29;45822;-80
2022/10/04 01:23:40;;;;;;;;;34.00;27.00;;;;;14.34;65.71;101492.09;4880716;29;45665;-79
2022/10/04 01:26:30;;;;;;;;;27.50;26.00;;;;;14.36;65.31;101495.44;4880425;29;46517;-79
2022/10/04 01:28:59;;;;;;;;;16.50;14.50;;;;;14.36;65.68;101494.63;4867440;29;45998;-79
2022/10/04 01:31:26;;;;;;;;;35.00;28.50;;;;;14.34;65.66;101480.69;4878692;29;45512;-79
2022/10/04 01:33:53;;;;;;;;;32.50;29.50;;;;;14.34;65.45;101476.25;4878623;29;45672;-79
2022/10/04 01:36:19;;;;;;;;;30.75;28.25;;;;;14.34;65.51;101488.59;4879043;29;45591;-79
2022/10/04 01:38:45;;;;;;;;;36.25;30.00;;;;;14.32;65.24;101478.16;4880935;29;46509;-80
2022/10/04 01:41:13;;;;;;;;;33.00;26.00;;;;;14.32;65.48;101486.06;4881240;29;45659;-79
2022/10/04 01:43:42;;;;;;;;;29.25;28.25;;;;;14.27;65.67;101481.13;4882346;29;45771;-79
2022/10/04 01:46:22;;;;;;;;;34.75;32.00;;;;;14.28;66.00;101485.47;4881360;29;46649;-78
2022/10/04 01:48:47;;;;;;;;;30.00;26.00;;;;;14.27;65.92;101482.94;4881179;29;46082;-78
2022/10/04 01:51:16;;;;;;;;;29.25;27.75;;;;;14.25;65.91;101472.47;4881050;29;45904;-78
2022/10/04 01:54:07;;;;;;;;;36.25;31.00;;;;;14.23;65.72;101468.28;4881492;29;45706;-78
2022/10/04 01:56:42;;;;;;;;;35.00;28.75;;;;;14.23;66.03;101468.28;4891556;29;46495;-78
2022/10/04 01:59:18;;;;;;;;;29.50;27.75;;;;;14.21;65.83;101473.66;4899782;29;45611;-79
2022/10/04 02:01:59;;;;;;;;;28.75;26.75;;;;;14.22;66.06;101474.50;4899810;29;45912;-78
2022/10/04 02:04:33;;;;;;;;;29.75;26.75;;;;;14.19;65.91;101472.97;4899921;29;45504;-79
2022/10/04 02:07:00;;;;;;;;;33.25;29.00;;;;;14.19;66.17;101464.22;4899623;29;46443;-78
2022/10/04 02:12:53;;;;;;;;;33.75;27.50;;;;;14.15;66.19;101449.53;4899772;29;45686;-78
2022/10/04 02:15:24;;;;;;;;;34.00;29.25;;;;;14.15;65.85;101445.13;4899886;29;45762;-79
2022/10/04 02:17:50;;;;;;;;;31.00;28.75;;;;;14.13;66.26;101443.56;4899222;29;45791;-79
2022/10/04 02:20:20;;;;;;;;;30.75;29.50;;;;;14.11;65.90;101432.28;4899376;29;46273;-79
2022/10/04 02:22:49;;;;;;;;;30.00;26.75;;;;;14.09;65.87;101429.75;4897363;29;45661;-79
2022/10/04 02:28:38;;;;;;;;;27.75;27.25;;;;;14.08;66.38;101428.09;4899075;29;45661;-78
2022/10/04 02:33:52;;;;;;;;;33.50;31.50;;;;;14.00;65.96;101411.97;4899042;29;45513;-79
2022/10/04 02:36:22;;;;;;;;;29.75;25.50;;;;;14.00;66.29;101413.78;4899285;29;45702;-79
2022/10/04 02:39:14;;;;;;;;;37.50;30.75;;;;;13.96;66.03;101415.78;4898951;29;46387;-79
2022/10/04 02:45:12;;;;;;;;;38.00;30.50;;;;;13.92;66.16;101402.97;4898642;29;45563;-78
2022/10/04 02:47:53;;;;;;;;;21.75;14.25;;;;;13.90;66.65;101404.84;4899285;29;45682;-78
2022/10/04 02:50:47;;;;;;;;;36.75;32.25;;;;;13.89;66.74;101409.28;4898157;29;45746;-79
2022/10/04 02:53:44;;;;;;;;;31.50;28.75;;;;;13.90;66.39;101415.38;4891474;29;46007;-79
2022/10/04 02:56:11;;;;;;;;;34.00;30.50;;;;;13.86;66.78;101407.72;4895229;28;45654;-79
2022/10/04 02:58:39;;;;;;;;;38.25;30.00;;;;;13.86;66.53;101413.00;4880145;29;45611;-78
2022/10/04 03:01:05;;;;;;;;;35.00;31.00;;;;;13.83;66.85;101407.91;4879872;29;46406;-79
2022/10/04 03:03:36;;;;;;;;;36.75;32.25;;;;;13.85;66.52;101411.31;4879858;29;45667;-79
2022/10/04 03:06:10;;;;;;;;;34.75;31.25;;;;;13.84;66.83;101400.88;4879784;29;45472;-79
2022/10/04 03:08:46;;;;;;;;;40.00;33.50;;;;;13.82;66.75;101411.50;4879918;29;45676;-78
2022/10/04 03:11:14;;;;;;;;;31.25;29.50;;;;;13.83;66.81;101414.97;4879650;29;46289;-79
2022/10/04 03:13:48;;;;;;;;;32.25;28.25;;;;;13.81;66.44;101409.84;4879898;29;45965;-79
2022/10/04 03:16:14;;;;;;;;;30.00;28.50;;;;;13.79;66.71;101401.19;4880447;29;45934;-79
2022/10/04 03:18:41;;;;;;;;;30.75;29.75;;;;;13.76;66.66;101403.22;4882346;29;45675;-78
2022/10/04 03:21:10;;;;;;;;;32.25;27.25;;;;;13.79;66.68;101401.19;4883785;29;45707;-79
2022/10/04 03:23:38;;;;;;;;;35.75;32.75;;;;;13.75;66.90;101394.47;4883672;29;46104;-78
2022/10/04 03:26:18;;;;;;;;;35.75;32.25;;;;;13.76;66.81;101397.97;4865869;29;45640;-79
2022/10/04 03:28:44;;;;;;;;;34.50;30.75;;;;;13.72;66.70;101388.56;4880699;29;45882;-79
2022/10/04 03:31:12;;;;;;;;;32.00;28.75;;;;;13.75;66.91;101378.69;4879573;29;46295;-79
2022/10/04 03:33:39;;;;;;;;;32.25;29.25;;;;;13.71;66.58;101371.94;4879604;29;46067;-79
2022/10/04 03:36:05;;;;;;;;;32.75;29.00;;;;;13.73;66.89;101377.09;4879360;29;45717;-78
2022/10/04 03:38:34;;;;;;;;;31.25;29.50;;;;;13.71;67.13;101368.47;4879220;29;45770;-79
2022/10/04 03:41:01;;;;;;;;;32.00;29.00;;;;;13.68;66.81;101364.25;4879288;29;46798;-78
2022/10/04 03:43:33;;;;;;;;;34.00;27.75;;;;;13.60;67.08;101361.34;4879270;29;46726;-78
2022/10/04 03:46:01;;;;;;;;;36.50;32.25;;;;;13.60;67.41;101371.88;4879119;29;45675;-78
2022/10/04 03:48:37;;;;;;;;;28.75;28.50;;;;;13.57;67.22;101358.06;4879444;29;45534;-78
2022/10/04 03:51:05;;;;;;;;;32.00;28.00;;;;;13.53;67.07;101372.41;4879362;29;46545;-79
2022/10/04 03:53:36;;;;;;;;;32.75;27.50;;;;;13.51;67.24;101367.25;4879297;29;46201;-78
2022/10/04 03:56:10;;;;;;;;;30.25;26.50;;;;;13.52;67.27;101365.47;4881511;29;45540;-78
2022/10/04 03:58:35;;;;;;;;;27.50;23.50;;;;;13.50;67.12;101365.56;4898166;29;45706;-78
2022/10/04 04:01:10;;;;;;;;;29.75;27.50;;;;;13.52;67.03;101368.09;4897220;29;45729;-78
2022/10/04 04:04:15;;;;;;;;;36.00;29.25;;;;;13.50;66.98;101359.44;4897944;29;46001;-78
2022/10/04 04:07:06;;;;;;;;;32.25;25.00;;;;;13.48;67.13;101358.75;4897988;29;45533;-78
2022/10/04 04:09:42;;;;;;;;;34.75;30.00;;;;;13.45;67.44;101365.91;4898237;29;45791;-78
2022/10/04 04:12:17;;;;;;;;;10.25;6.50;;;;;13.45;67.45;101367.69;4898236;29;45749;-78
2022/10/04 04:14:45;;;;;;;;;28.50;26.75;;;;;13.41;67.57;101367.06;4898201;29;46226;-77
2022/10/04 04:17:32;;;;;;;;;33.00;26.75;;;;;13.39;67.55;101376.84;4898492;29;45500;-78
2022/10/04 04:20:02;;;;;;;;;30.00;26.00;;;;;13.37;67.38;101378.78;4897774;29;45499;-78
2022/10/04 04:22:30;;;;;;;;;33.75;30.50;;;;;13.36;67.58;101377.09;4897666;29;46615;-78
2022/10/04 04:24:59;;;;;;;;;26.25;26.00;;;;;13.36;67.35;101392.88;4897703;29;46131;-78
2022/10/04 04:27:25;;;;;;;;;30.75;27.00;;;;;13.33;67.53;101376.47;4897577;29;45671;-78
2022/10/04 04:29:53;;;;;;;;;11.50;8.50;;;;;13.33;67.33;101389.63;4898085;29;45644;-78
2022/10/04 04:32:23;;;;;;;;;30.50;25.75;;;;;13.35;67.52;101399.09;4897881;29;45945;-78
2022/10/04 04:35:23;;;;;;;;;26.00;24.75;;;;;13.34;67.21;101400.03;4897471;29;46135;-77
2022/10/04 04:38:20;;;;;;;;;30.25;26.25;;;;;13.33;67.44;101400.16;4897620;29;45852;-78
2022/10/04 04:40:46;;;;;;;;;26.00;23.75;;;;;13.30;67.38;101395.09;4898722;29;45582;-78
2022/10/04 04:43:25;;;;;;;;;24.75;22.00;;;;;13.29;67.38;101386.34;4898381;29;46873;-78
2022/10/04 04:45:53;;;;;;;;;28.75;25.00;;;;;13.28;67.24;101384.66;4898013;29;46281;-78
2022/10/04 04:48:20;;;;;;;;;24.50;22.25;;;;;13.29;67.56;101388.13;4899018;29;45576;-78
2022/10/04 04:50:51;;;;;;;;;25.25;22.50;;;;;13.25;67.44;101386.66;4898618;29;45476;-80
2022/10/04 04:53:28;;;;;;;;;26.50;24.75;;;;;13.27;67.32;101397.94;4898056;29;46572;-78
2022/10/04 04:55:59;;;;;;;;;25.75;25.50;;;;;13.27;67.43;101392.69;4879727;29;46789;-79
2022/10/04 04:58:37;;;;;;;;;19.75;16.75;;;;;13.26;67.34;101393.63;4897729;29;45531;-79
2022/10/04 05:01:06;;;;;;;;;29.00;22.50;;;;;13.24;67.51;101392.88;4897894;29;45612;-79
2022/10/04 05:03:32;;;;;;;;;30.25;26.00;;;;;13.23;67.21;101397.28;4897488;29;46616;-79
2022/10/04 05:06:03;;;;;;;;;27.25;23.00;;;;;13.20;67.51;101387.00;4880184;29;46392;-79
2022/10/04 05:08:31;;;;;;;;;29.25;26.00;;;;;13.20;67.56;101396.69;4897035;29;45816;-80
2022/10/04 05:10:57;;;;;;;;;24.25;23.75;;;;;13.19;67.64;101393.19;4897595;29;45667;-78
2022/10/04 05:13:30;;;;;;;;;30.00;28.00;;;;;13.18;67.49;101394.16;4899478;29;46463;-79
2022/10/04 05:15:58;;;;;;;;;27.75;26.00;;;;;13.16;67.31;101395.22;4883139;29;47153;-78
2022/10/04 05:18:30;;;;;;;;;29.00;25.75;;;;;13.16;67.48;101400.47;4900780;29;45640;-78
2022/10/04 05:21:03;;;;;;;;;31.75;28.00;;;;;13.16;67.68;101406.59;4900951;29;45722;-78
2022/10/04 05:23:28;;;;;;;;;27.00;24.75;;;;;13.11;67.34;101392.88;4901324;29;45567;-79
2022/10/04 05:25:54;;;;;;;;;27.50;24.75;;;;;13.11;67.66;101400.75;4901378;29;45615;-78
2022/10/04 05:28:19;;;;;;;;;29.50;24.00;;;;;13.10;67.78;101398.22;4903146;29;45779;-78
2022/10/04 05:30:55;;;;;;;;;38.25;32.00;;;;;13.08;67.47;101394.84;4905621;29;45481;-79
2022/10/04 05:33:25;;;;;;;;;47.25;36.00;;;;;13.04;67.80;101383.72;4904417;29;45675;-78
2022/10/04 05:36:09;;;;;;;;;29.25;22.50;;;;;12.98;67.48;101377.09;4902117;29;46283;-78
2022/10/04 05:39:02;;;;;;;;;31.00;23.00;;;;;12.99;67.94;101384.03;4900846;29;45679;-81
2022/10/04 05:44:51;;;;;;;;;26.75;23.50;;;;;12.94;67.66;101385.28;4900110;29;45964;-79
2022/10/04 05:47:28;;;;;;;;;27.50;21.75;;;;;12.93;67.82;101381.81;4900630;29;46141;-79
2022/10/04 05:49:56;;;;;;;;;31.75;23.75;;;;;12.93;67.99;101386.25;4900467;29;45982;-79
2022/10/04 05:52:39;;;;;;;;;26.75;22.25;;;;;12.94;67.97;101391.41;4899900;29;45854;-79
2022/10/04 05:55:15;;;;;;;;;26.75;21.25;;;;;12.95;67.76;101389.63;4900487;29;46736;-78
2022/10/04 06:01:21;;;;;;;;;24.00;21.50;;;;;12.91;68.11;101381.06;4899823;29;45699;-78
2022/10/04 06:04:08;;;;;;;;;29.50;26.00;;;;;12.91;68.22;101381.06;4901671;29;45451;-80
2022/10/04 06:06:33;;;;;;;;;33.25;28.75;;;;;12.91;67.89;101380.22;4899830;29;46876;-75
2022/10/04 06:09:18;;;;;;;;;28.67;26.67;;;;;12.92;67.91;101374.03;4899036;29;45760;-73
2022/10/04 06:12:02;;;;;;;;;34.50;29.00;;;;;12.92;67.97;101382.75;4899346;29;45591;-74
2022/10/04 06:18:18;;;;;;;;;27.25;23.50;;;;;12.93;68.25;101384.44;4898350;29;45694;-75
2022/10/04 06:20:56;;;;;;;;;51.50;37.75;;;;;12.93;67.78;101376.56;4898877;29;47183;-75
2022/10/04 06:23:25;;;;;;;;;28.00;25.25;;;;;12.94;67.88;101377.41;4898004;29;46062;-76
2022/10/04 06:25:56;;;;;;;;;30.25;25.50;;;;;12.94;68.08;101383.50;4898529;29;45582;-75
2022/10/04 06:28:47;;;;;;;;;32.25;28.50;;;;;12.93;68.10;101388.88;4897607;29;46471;-76
2022/10/04 06:31:27;;;;;;;;;26.25;22.75;;;;;12.96;68.31;101393.91;4899166;29;46465;-73
2022/10/04 06:34:39;;;;;;;;;27.50;25.00;;;;;12.96;68.32;101394.75;4899018;29;45605;-75
2022/10/04 06:37:11;;;;;;;;;28.25;24.75;;;;;12.97;68.04;101398.22;4898393;29;45872;-75
2022/10/04 06:40:11;;;;;;;;;28.00;24.75;;;;;12.97;68.01;101404.31;4898767;29;47478;-75
2022/10/04 06:46:17;;;;;;;;;32.25;24.25;;;;;12.97;68.31;101412.22;4898795;29;45589;-74
2022/10/04 06:49:09;;;;;;;;;29.25;27.50;;;;;12.98;68.14;101399.91;4898499;29;45831;-74
2022/10/04 06:51:53;;;;;;;;;25.00;24.00;;;;;12.98;68.29;101397.28;4898467;29;47374;-74
2022/10/04 06:54:33;;;;;;;;;22.50;20.00;;;;;12.99;68.11;101401.59;4898344;29;46413;-75
2022/10/04 06:57:31;;;;;;;;;24.25;22.00;;;;;13.00;68.16;101405.91;4897829;29;45934;-75
2022/10/04 07:03:31;;;;;;;;;27.00;24.25;;;;;13.00;68.28;101403.28;4898264;29;45964;-75
2022/10/04 07:06:03;;;;;;;;;26.75;23.25;;;;;13.01;68.17;101402.31;4898430;29;45933;-73
2022/10/04 07:08:51;;;;;;;;;25.75;23.00;;;;;13.00;68.22;101401.50;4898116;29;45582;-75
2022/10/04 07:11:22;;;;;;;;;25.25;22.00;;;;;13.01;68.30;101405.78;4897574;29;45595;-75
2022/10/04 07:14:05;;;;;;;;;24.25;21.25;;;;;13.02;68.04;101404.84;4896801;29;47552;-74
2022/10/04 07:16:44;;;;;;;;;22.75;21.25;;;;;13.03;68.02;101401.28;4897005;29;46239;-72
2022/10/04 07:19:33;;;;;;;;;26.25;23.75;;;;;13.04;68.22;101408.22;4897236;29;45928;-73
2022/10/04 07:22:22;;;;;;;;;23.75;22.25;;;;;13.05;67.97;101409.06;4897194;29;45902;-72
2022/10/04 07:25:13;;;;;;;;;26.00;22.25;;;;;13.06;68.15;101413.41;4874780;29;48474;-73
2022/10/04 07:30:53;;;;;;;;;23.00;21.00;;;;;13.09;67.80;101409.69;4896129;29;45919;-73
2022/10/04 07:33:24;;;;;;;;;32.00;27.75;;;;;13.09;67.72;101412.31;4897077;29;45618;-73
2022/10/04 07:35:59;;;;;;;;;26.75;23.50;;;;;13.10;68.00;101420.13;4896224;29;46470;-73
2022/10/04 07:38:33;;;;;;;;;30.00;26.50;;;;;13.09;67.95;101413.19;4899241;29;46103;-72
2022/10/04 07:40:58;;;;;;;;;29.25;24.25;;;;;13.11;67.78;101419.19;4882252;29;45937;-73
2022/10/04 07:46:52;;;;;;;;;36.00;34.50;;;;;13.11;67.61;101413.91;4897135;29;46067;-73
2022/10/04 07:49:20;;;;;;;;;30.50;30.50;;;;;13.10;68.17;101417.50;4897824;29;46140;-73
2022/10/04 07:52:02;;;;;;;;;30.50;25.50;;;;;13.11;67.81;101416.56;4879801;29;45899;-74
2022/10/04 07:54:39;;;;;;;;;28.25;26.75;;;;;13.11;67.70;101408.66;4896769;29;45691;-74
2022/10/04 07:57:23;;;;;;;;;27.50;25.25;;;;;13.13;67.76;101411.19;4896246;29;45908;-74
2022/10/04 08:03:35;;;;;;;;;29.00;24.25;;;;;13.14;67.91;101416.34;4896528;29;45745;-74
2022/10/04 08:06:25;;;;;;;;;28.00;25.75;;;;;13.16;67.96;101411.84;4896472;29;45870;-76
2022/10/04 08:09:09;;;;;;;;;33.00;30.50;;;;;13.18;67.88;101404.66;4896423;29;47499;-74
2022/10/04 08:11:43;;;;;;;;;31.75;29.25;;;;;13.19;68.00;101398.47;4896447;29;45574;-76
2022/10/04 08:14:25;;;;;;;;;29.00;28.25;;;;;13.22;68.02;101394.78;4879412;29;45823;-74
2022/10/04 08:17:12;;;;;;;;;31.50;26.75;;;;;13.24;67.85;101406.88;4896331;29;45829;-74
2022/10/04 08:19:52;;;;;;;;;27.75;26.00;;;;;13.26;68.06;101402.38;4896492;29;46385;-74
2022/10/04 08:22:21;;;;;;;;;30.25;28.00;;;;;13.27;68.01;101390.06;4896483;29;45602;-73
2022/10/04 08:25:17;;;;;;;;;28.00;28.00;;;;;13.29;67.85;101396.03;4896512;29;45841;-74
2022/10/04 08:30:58;;;;;;;;;32.00;29.75;;;;;13.33;68.45;101413.31;4895607;29;46104;-75
2022/10/04 08:33:35;;;;;;;;;38.50;32.00;;;;;13.33;68.31;101408.88;4878886;29;47225;-74
2022/10/04 08:36:23;;;;;;;;;32.50;29.00;;;;;13.33;68.21;101416.75;4895969;29;45661;-74
2022/10/04 08:38:55;;;;;;;;;33.25;30.25;;;;;13.35;68.14;101416.66;4889013;29;45916;-74
2022/10/04 08:41:30;;;;;;;;;24.00;23.75;;;;;13.37;67.87;101427.94;4895978;29;46459;-74
2022/10/04 08:47:35;;;;;;;;;34.75;31.00;;;;;13.39;67.78;101426.88;4896409;29;45640;-74
2022/10/04 08:50:19;;;;;;;;;32.50;31.25;;;;;13.41;67.83;101437.28;4899086;29;45713;-74
2022/10/04 08:53:20;;;;;;;;;36.25;30.50;;;;;13.45;67.88;101436.13;4899473;29;45677;-74
2022/10/04 08:56:05;;;;;;;;;39.50;34.50;;;;;13.47;67.79;101438.66;4898738;29;46661;-73
2022/10/04 08:58:33;;;;;;;;;34.00;25.50;;;;;13.50;68.06;101446.31;4899298;29;45592;-75
2022/10/04 09:04:44;;;;;;;;;36.75;34.00;;;;;13.55;68.13;101438.97;4898764;29;45600;-75
2022/10/04 09:07:47;;;;;;;;;40.50;34.75;;;;;13.57;68.18;101443.16;4899052;29;46024;-75
2022/10/04 09:10:33;;;;;;;;;34.75;33.75;;;;;13.62;67.93;101445.47;4899028;29;45580;-73
2022/10/04 09:13:34;;;;;;;;;35.50;31.25;;;;;13.64;67.91;101444.44;4899258;29;45657;-76
2022/10/04 09:16:37;;;;;;;;;37.25;31.75;;;;;13.69;67.94;101438.84;4842823;29;47261;-73
2022/10/04 09:19:20;;;;;;;;;40.25;34.75;;;;;13.74;68.08;101436.72;4858651;29;46133;-73
2022/10/04 09:21:45;;;;;;;;;41.50;35.75;;;;;13.76;68.31;101438.31;4859107;29;45972;-74
2022/10/04 09:24:17;;;;;;;;;37.67;32.67;;;;;13.80;68.31;101439.75;4859054;29;45815;-73
2022/10/04 09:26:48;;;;;;;;;36.50;34.25;;;;;13.85;68.25;101442.06;4858393;29;45716;-74
2022/10/04 09:32:47;;;;;;;;;41.50;34.75;;;;;13.95;68.24;101447.50;4858524;28;46039;-73
2022/10/04 09:36:00;;;;;;;;;36.75;30.50;;;;;14.00;68.43;101448.88;4858322;29;45909;-73
2022/10/04 09:38:49;;;;;;;;;40.25;35.75;;;;;14.05;68.07;101438.84;4821201;29;46834;-74
2022/10/04 09:41:42;;;;;;;;;33.75;29.00;;;;;14.12;68.16;101419.00;4821342;29;46229;-75
2022/10/04 09:47:30;;;;;;;;;36.00;33.50;;;;;14.24;68.41;101412.84;4749838;29;45744;-76
2022/10/04 09:50:40;;;;;;;;;37.75;33.75;;;;;14.29;68.24;101410.69;4750762;29;46649;-75
2022/10/04 09:53:23;;;;;;;;;37.25;34.00;;;;;14.35;68.45;101408.56;4762180;29;46352;-73
2022/10/04 09:56:17;;;;;;;;;30.50;29.75;;;;;14.39;68.33;101410.03;4767095;29;45784;-74
2022/10/04 09:59:17;;;;;;;;;30.00;26.25;;;;;14.43;68.44;101414.97;4752139;29;45958;-77
2022/10/04 10:02:00;;;;;;;;;37.00;33.25;;;;;14.50;68.44;101420.63;4767704;29;45713;-75
2022/10/04 10:04:38;;;;;;;;;38.25;31.75;;;;;14.54;68.25;101417.66;4767110;29;47526;-74
2022/10/04 10:07:22;;;;;;;;;34.50;31.25;;;;;14.59;68.59;101415.50;4767361;29;45822;-74
2022/10/04 10:13:41;;;;;;;;;31.75;28.00;;;;;14.70;68.47;101407.63;4777764;29;46106;-75
2022/10/04 10:20:01;;;;;;;;;31.25;29.50;;;;;14.83;68.17;101399.66;4821281;29;46015;-73
2022/10/04 10:22:43;;;;;;;;;28.25;24.00;;;;;14.88;68.32;101389.56;4806412;29;45743;-76
2022/10/04 10:25:16;;;;;;;;;31.25;26.50;;;;;14.95;68.50;101387.31;4893642;29;45915;-73
2022/10/04 10:28:09;;;;;;;;;30.50;25.75;;;;;14.99;68.67;101379.03;4898370;29;45995;-74
2022/10/04 10:30:46;;;;;;;;;33.50;30.00;;;;;15.04;68.49;101382.16;4898260;29;45764;-75
2022/10/04 10:33:19;;;;;;;;;33.50;26.75;;;;;15.10;68.51;101384.34;4898690;29;45859;-77
2022/10/04 10:35:57;;;;;;;;;31.25;29.50;;;;;15.18;68.50;101370.53;4880808;29;48074;-76
2022/10/04 10:38:56;;;;;;;;;34.25;31.75;;;;;15.25;68.20;101370.88;4898047;29;45934;-72
2022/10/04 10:41:48;;;;;;;;;30.25;27.00;;;;;15.31;68.15;101367.75;4898624;29;45683;-74
2022/10/04 10:47:48;;;;;;;;;25.75;23.75;;;;;15.43;68.31;101375.56;4898199;29;46134;-72
2022/10/04 10:50:14;;;;;;;;;26.00;22.50;;;;;15.49;68.05;101375.06;4898160;29;46299;-74
2022/10/04 10:52:54;;;;;;;;;24.67;23.67;;;;;15.56;67.77;101377.25;4898488;29;45611;-73
2022/10/04 10:55:25;;;;;;;;;21.25;19.75;;;;;15.62;67.58;101368.84;4897657;29;45715;-76
2022/10/04 10:58:12;;;;;;;;;27.75;25.25;;;;;15.68;67.67;101357.78;4880510;29;46391;-74
2022/10/04 11:04:15;;;;;;;;;20.75;17.25;;;;;15.79;67.23;101360.41;4897839;29;45763;-75
2022/10/04 11:06:49;;;;;;;;;24.25;19.75;;;;;15.84;67.25;101364.34;4898087;29;45929;-74
2022/10/04 11:09:28;;;;;;;;;32.75;26.75;;;;;15.90;67.10;101363.00;4897320;29;47429;-75
2022/10/04 11:12:12;;;;;;;;;26.25;23.50;;;;;15.95;67.05;101364.31;4897538;29;45747;-77
2022/10/04 11:14:42;;;;;;;;;29.50;25.50;;;;;16.00;67.01;101363.09;4897706;29;45730;-78
2022/10/04 11:20:58;;;;;;;;;31.00;27.75;;;;;16.10;66.51;101380.72;4897624;29;46061;-77
2022/10/04 11:23:51;;;;;;;;;27.50;24.00;;;;;16.16;66.74;101377.59;4897442;29;46474;-76
2022/10/04 11:26:45;;;;;;;;;25.75;23.25;;;;;16.21;66.80;101374.56;4897754;29;45628;-74
2022/10/04 11:29:25;;;;;;;;;20.25;19.75;;;;;16.25;66.54;101382.09;4897738;29;45670;-75
2022/10/04 11:31:59;;;;;;;;;25.75;24.25;;;;;16.29;66.69;101374.78;4879904;29;48213;-75
2022/10/04 11:34:49;;;;;;;;;23.50;21.25;;;;;16.32;66.55;101379.81;4880197;29;47518;-74
2022/10/04 11:37:33;;;;;;;;;27.25;25.25;;;;;16.37;66.47;101380.25;4881156;29;45666;-75
2022/10/04 11:40:17;;;;;;;;;27.25;24.50;;;;;16.41;66.35;101391.44;4897728;29;46092;-77
2022/10/04 11:43:00;;;;;;;;;24.75;22.25;;;;;16.43;66.00;101394.78;4897468;29;45646;-75
2022/10/04 11:48:53;;;;;;;;;25.25;23.25;;;;;16.50;65.93;101391.50;4897376;29;45618;-74
2022/10/04 11:51:48;;;;;;;;;21.00;18.75;;;;;16.55;66.06;101391.13;4897756;29;45786;-75
2022/10/04 11:54:26;;;;;;;;;26.75;21.75;;;;;16.60;66.02;101384.50;4898304;29;45854;-74
2022/10/04 11:57:10;;;;;;;;;22.00;19.75;;;;;16.64;65.91;101383.28;4897102;29;45614;-76
2022/10/04 11:59:44;;;;;;;;;22.50;21.50;;;;;16.70;65.49;101373.97;4899483;29;45869;-76
2022/10/04 12:05:51;;;;;;;;;21.75;20.50;;;;;16.81;65.73;101362.47;4897557;29;45590;-75
2022/10/04 12:08:23;;;;;;;;;26.50;21.75;;;;;16.85;65.69;101369.19;4897130;29;45660;-77
2022/10/04 12:12:35;;;;;;;;;20.75;19.50;;;;;16.91;65.43;101366.03;4879983;29;45934;-76
2022/10/04 12:14:45;;;;;;;;;22.50;21.50;;;;;16.97;65.03;101374.28;4896567;29;45778;-76
2022/10/04 12:17:42;;;;;;;;;18.50;16.00;;;;;17.04;65.02;101377.25;4896600;29;45820;-76
2022/10/04 12:20:43;;;;;;;;;17.25;14.50;;;;;17.08;64.88;101379.50;4896901;29;46086;-74
2022/10/04 12:23:18;;;;;;;;;14.25;12.50;;;;;17.13;64.59;101376.44;4897276;29;45653;-74
2022/10/04 12:25:58;;;;;;;;;13.75;13.00;;;;;17.18;64.57;101380.38;4897008;29;45749;-75
2022/10/04 12:28:57;;;;;;;;;11.75;10.75;;;;;17.26;64.88;101369.13;4879684;29;47856;-73
2022/10/04 12:34:56;;;;;;;;;12.00;12.00;;;;;17.37;64.50;101366.38;4896458;29;45528;-73
2022/10/04 12:37:57;;;;;;;;;11.00;11.00;;;;;17.42;64.13;101363.34;4896591;29;45623;-73
2022/10/04 12:40:32;;;;;;;;;8.25;8.25;;;;;17.45;64.02;101353.28;4856684;29;46424;-73
2022/10/04 12:43:15;;;;;;;;;9.50;9.25;;;;;17.51;64.20;101355.41;4856923;29;46947;-72
2022/10/04 12:46:05;;;;;;;;;9.75;9.00;;;;;17.58;63.75;101345.94;4856594;29;45815;-72
2022/10/04 12:48:52;;;;;;;;;8.75;8.75;;;;;17.62;64.07;101338.59;4856955;29;45814;-75
2022/10/04 12:51:49;;;;;;;;;9.00;9.00;;;;;17.67;63.52;101336.38;4856491;29;45916;-74
2022/10/04 12:54:29;;;;;;;;;11.50;11.00;;;;;17.71;63.39;101324.50;4856540;29;46425;-74
2022/10/04 12:57:12;;;;;;;;;12.75;10.75;;;;;17.77;63.87;101331.06;4856428;29;45793;-73
2022/10/04 12:59:56;;;;;;;;;10.25;9.75;;;;;17.81;63.37;101333.34;4857066;29;45886;-73
2022/10/04 13:02:34;;;;;;;;;13.00;12.50;;;;;17.87;63.40;101331.91;4856522;29;46491;-74
2022/10/04 13:05:12;;;;;;;;;12.75;11.00;;;;;17.91;63.29;101320.91;4856445;29;45970;-74
2022/10/04 13:08:02;;;;;;;;;11.25;10.25;;;;;17.97;63.42;101316.88;4856716;29;45947;-74
2022/10/04 13:10:43;;;;;;;;;10.50;9.75;;;;;18.03;63.21;101317.13;4856641;29;45583;-73
2022/10/04 13:13:26;;;;;;;;;10.00;9.00;;;;;18.10;63.02;101313.94;4856714;29;46491;-74
2022/10/04 13:19:57;;;;;;;;;8.75;8.25;;;;;18.21;62.86;101308.47;4895799;29;45705;-74
2022/10/04 13:22:25;;;;;;;;;11.25;9.50;;;;;18.26;62.56;101316.84;4819270;29;45887;-73
2022/10/04 13:25:22;;;;;;;;;11.75;10.50;;;;;18.30;62.49;101310.31;4818993;29;46451;-73
2022/10/04 13:27:58;;;;;;;;;8.25;7.00;;;;;18.32;62.32;101306.50;4819187;29;47349;-74
2022/10/04 13:30:48;;;;;;;;;9.25;8.00;;;;;18.39;62.26;101299.66;4819229;29;45575;-73
2022/10/04 13:37:16;;;;;;;;;12.00;9.50;;;;;18.48;61.62;101283.84;4821747;29;46102;-74